Quick Links (Output Below):   Max & Min Temps   /   Climate Reports   /   Zone Forecasts
River Forecasts   /   Forestry Forecasts   /   Aviation Forecasts   /   Radars   /   Features

Terminal Aerodrome Forecast (Highfill)

Pick a Site:
Arkadelphia | El Dorado | Fayetteville | Fort Smith | Harrison | Highfill | Hot Springs | Jonesboro
Little Rock | Monticello | Mountain Home | Pine Bluff | Texarkana
 Forecast 

KXNA 302323Z 3100/3124 06005KT 4SM -RA OVC015
      TEMPO 3100/3104 1SM +RA BR BKN007
     FM310400 VRB03KT 3SM -RA BR BKN015
     FM310700 VRB03KT 2SM -RA BR BKN006
     FM311500 12005KT 5SM -RA BR BKN015
     FM311700 12005KT P6SM BKN025=


 Latest METARs (Observations) 
How to Decode METARs
23Z KXNA 302253Z 06005KT 4SM RA OVC015 18/ A3009 RMK AO2 SLP178 P0029
         T0183 $
         
22Z KXNA 302153Z 15005KT 3SM RA BR SCT006 BKN009 OVC031 21/20 A3009
         RMK AO2 CIG 007V011 SLP179 P0007 T02060200
         
21Z KXNA 302053Z 23004KT 5SM -RA BR FEW006 BKN020 OVC060 21/21 A3010
         RMK AO2 SLP181 P0003 60006 T02110206 56004
         
20Z KXNA 301953Z 22007KT 6SM -RA BR SCT011 BKN070 OVC100 21/21 A3010
         RMK AO2 SLP182 P0001 T02110206
         
19Z KXNA 301853Z 22005KT 7SM -RA BKN008 OVC016 22/21 A3011 RMK AO2
         SLP185 P0002 T02170211
         
18Z KXNA 301753Z 23007KT 10SM -RA BKN016 BKN050 OVC090 22/20 A3012 RMK
         AO2 RAB53 SLP187 P0000 60013 T02170200 10217 20194 50003
         
17Z KXNA 301653Z 21008KT 10SM SCT016 BKN023 OVC070 22/21 A3012 RMK AO2
         RAE45 SLP189 P0003 T02170206
         
16Z KXNA 301553Z 20006KT 2 1/2SM RA BR SCT049 OVC060 21/21 A3012 RMK
         AO2 RAB14 SLP189 P0006 T02060206
         
15Z KXNA 301453Z 19006KT 10SM BKN055 OVC070 21/20 A3011 RMK AO2
         RAB04E33 SLP184 P0004 60004 T02110200 50004
         
14Z KXNA 301353Z 00000KT 10SM OVC050 22/18 A3012 RMK AO2 SLP186
         T02170183
         
***** Today's Observations (Above) *****


Back to Main Page
http://www.srh.noaa.gov/lzk/qfcst.php

USA.gov is the U.S. government's official web portal to all federal, state and local government web resources and services.